< Cyclone 202115 2021 Season
Cyclone 202117 (Niran)
General InformationDetailed Track InformationTrack Information on Google Maps || ResourceGoogle EarthGE AnimationAtom FeedGeoJSON
Year Month Day Hour Lat. Long. Wind (kt) Gust (kt) Direc. of Major Storm Axis Radius of Major Storm Axis (nm) Radius of Minor Storm Axis (nm) Direc. of Major Gale Axis Radius of Major Gale Axis (nm) Radius of Minor Gale Axis (nm) Image
2021 2 27 00 -15.7 149.2 25 45 symmetric - - symmetric - - Image
2021 2 27 06 -15.6 149.9 25 45 symmetric - - symmetric - - Image
2021 2 27 12 -15.8 149.7 25 45 symmetric - - symmetric - - Image
2021 2 27 18 -16.1 148.4 25 45 symmetric - - symmetric - - Image
2021 2 28 00 -16.7 148.3 25 45 symmetric - - symmetric - - Image
2021 2 28 06 -17.1 148.1 30 45 symmetric - - symmetric - - Image
2021 2 28 12 -17.1 148.2 35 50 symmetric - - symmetric - - Image
2021 2 28 18 -17.2 148.1 35 50 symmetric - - symmetric - - Image
2021 3 1 00 -17.4 147.3 35 50 symmetric - - symmetric - - Image
2021 3 1 06 -16.6 146.6 35 50 symmetric - - symmetric - - Image
2021 3 1 12 -16.0 146.9 40 65 symmetric - - symmetric - - Image
2021 3 1 18 -15.3 147.6 40 65 symmetric - - symmetric - - Image
2021 3 2 00 -15.0 147.5 45 65 symmetric - - symmetric - - Image
2021 3 2 06 -14.6 147.7 50 70 symmetric - - symmetric - - Image
2021 3 2 12 -14.5 147.8 50 70 symmetric - - symmetric - - Image
2021 3 2 18 -14.4 147.9 50 70 symmetric - - symmetric - - Image
2021 3 3 00 -14.6 147.7 55 75 symmetric - - symmetric - - Image
2021 3 3 06 -14.7 147.9 60 85 symmetric - - symmetric - - Image
2021 3 3 12 -14.7 148.0 60 85 symmetric - - symmetric - - Image
2021 3 3 18 -14.8 148.2 60 85 symmetric - - symmetric - - Image
2021 3 4 00 -15.0 148.6 70 100 symmetric - - symmetric - - Image
2021 3 4 06 -15.3 149.5 80 120 symmetric - - symmetric - - Image
2021 3 4 12 -15.3 150.6 80 110 symmetric - - symmetric - - Image
2021 3 4 18 -15.7 152.5 85 120 symmetric - - symmetric - - Image
2021 3 5 00 -16.5 154.4 90 125 symmetric - - symmetric - - Image
2021 3 5 06 -17.6 156.9 100 140 symmetric - - symmetric - - Image
2021 3 5 12 -18.6 159.1 110 155 symmetric - - symmetric - - Image
2021 3 5 18 -19.8 161.4 110 155 symmetric - - symmetric - - Image
< Cyclone 202115 2021 Season

Help